Babulsar, Iran
Current Conditions -  °F | °C
As of 2:00 AM on Monday 22 Dec 2014 (Local Time) from OINZ Reporting Station
Clear Clear  
Wind Chill: 41°   Ceiling: Unl
Heat Index: 41°   Visibility: 6mi
Dew Point: 37°   Wind: 2mph
Humidity: 87%   Direction: NA
Pressure: 30"   Gusts: NA
Location:  36.72°N, 52.65°E
Report Text: OINZ 212300Z VRB02KT CAVOK 05/03 Q1016
Loading
Personal Weather Stations






























Interactive Weather Map New forecast layout! Learn more

10-Day Weather Forecast

Advertisements
Track Severe Weather on mobile